Time;durP1;ratioP1;P1;durP2;ratioP2;P2;SDS_P1;SDS_P2;PMS_P1;PMS_P2;Temp;Humidity;BMP_temperature;BMP_pressure;BME280_temperature;BME280_humidity;BME280_pressure;Samples;Min_cycle;Max_cycle;Signal;HPM_P1;HPM_P2
2022/05/15 00:01:07;;;;;;;;;15.00;13.00;;;;;;;;5098539;28;8901;-74
2022/05/15 00:03:32;;;;;;;;;19.00;15.00;;;;;;;;5098232;28;11569;-74
2022/05/15 00:05:59;;;;;;;;;14.75;11.50;;;;;;;;5098938;28;8880;-75
2022/05/15 00:08:25;;;;;;;;;12.75;11.75;;;;;;;;5098747;28;11477;-74
2022/05/15 00:10:51;;;;;;;;;15.50;12.00;;;;;;;;5098266;28;11451;-75
2022/05/15 00:13:17;;;;;;;;;13.00;13.00;;;;;;;;5097973;28;11622;-74
2022/05/15 00:15:42;;;;;;;;;15.25;13.25;;;;;;;;5098580;28;11499;-74
2022/05/15 00:18:09;;;;;;;;;15.50;13.25;;;;;;;;5098715;28;11348;-75
2022/05/15 00:20:35;;;;;;;;;14.75;12.00;;;;;;;;5098527;28;8787;-76
2022/05/15 00:23:00;;;;;;;;;14.00;13.25;;;;;;;;5079213;28;12741;-75
2022/05/15 00:25:26;;;;;;;;;13.50;13.00;;;;;;;;5097954;28;11495;-75
2022/05/15 00:27:51;;;;;;;;;14.50;12.75;;;;;;;;5097976;28;11368;-75
2022/05/15 00:30:17;;;;;;;;;14.50;13.25;;;;;;;;5098111;28;11580;-75
2022/05/15 00:32:42;;;;;;;;;13.25;11.25;;;;;;;;5098333;28;8819;-74
2022/05/15 00:35:08;;;;;;;;;14.25;14.25;;;;;;;;5098825;28;10570;-74
2022/05/15 00:37:33;;;;;;;;;13.00;13.00;;;;;;;;5098426;28;8923;-75
2022/05/15 00:39:58;;;;;;;;;12.00;9.50;;;;;;;;5098310;28;11395;-74
2022/05/15 00:42:23;;;;;;;;;14.25;14.25;;;;;;;;5097939;28;22647;-75
2022/05/15 00:44:49;;;;;;;;;14.25;12.00;;;;;;;;5097691;28;22824;-75
2022/05/15 00:47:14;;;;;;;;;17.00;13.75;;;;;;;;5098074;28;9113;-75
2022/05/15 00:49:40;;;;;;;;;15.75;13.25;;;;;;;;5097829;28;13074;-75
2022/05/15 00:52:09;;;;;;;;;14.50;13.50;;;;;;;;5097670;28;10641;-75
2022/05/15 00:54:43;;;;;;;;;14.25;13.00;;;;;;;;5097701;28;11792;-75
2022/05/15 00:57:23;;;;;;;;;12.75;9.50;;;;;;;;5098221;28;11444;-75
2022/05/15 01:00:04;;;;;;;;;14.75;11.00;;;;;;;;5099323;28;23307;-74
2022/05/15 01:02:32;;;;;;;;;13.00;12.00;;;;;;;;5081447;28;23684;-75
2022/05/15 01:04:57;;;;;;;;;12.25;11.50;;;;;;;;5101611;28;11618;-74
2022/05/15 01:07:23;;;;;;;;;14.75;12.00;;;;;;;;5101444;28;11477;-75
2022/05/15 01:09:50;;;;;;;;;14.00;10.25;;;;;;;;5101397;28;11389;-73
2022/05/15 01:12:16;;;;;;;;;14.75;12.00;;;;;;;;5101148;28;10422;-75
2022/05/15 01:14:42;;;;;;;;;10.50;10.50;;;;;;;;5082186;28;11614;-74
2022/05/15 07:57:17;;;;;;;;;20.75;20.25;;;;;;;;5089641;27;2268541;-78
2022/05/15 07:59:42;;;;;;;;;18.75;16.75;;;;;;;;5156053;27;22771;-79
2022/05/15 08:02:07;;;;;;;;;21.00;17.75;;;;;;;;5156623;27;12183;-79
2022/05/15 08:08:00;;;;;;;;;17.00;15.50;;;;;;;;5156584;27;12745;-78
2022/05/15 08:10:02;;;;;;;;;19.00;18.00;;;;;;;;5136426;27;10379;-78
2022/05/15 08:12:28;;;;;;;;;19.50;18.50;;;;;;;;5157011;27;12476;-80
2022/05/15 08:14:53;;;;;;;;;21.50;17.75;;;;;;;;5156853;27;8882;-80
2022/05/15 08:17:18;;;;;;;;;16.00;16.00;;;;;;;;5156197;27;13200;-83
2022/05/15 08:25:16;;;;;;;;;21.00;20.25;;;;;;;;5116385;27;12481;-78
2022/05/15 08:27:41;;;;;;;;;16.00;15.75;;;;;;;;5156075;27;12187;-79
2022/05/15 08:30:07;;;;;;;;;19.00;18.25;;;;;;;;5137268;27;14597;-78
2022/05/15 08:32:33;;;;;;;;;16.00;16.00;;;;;;;;5155042;27;11793;-79
2022/05/15 08:34:59;;;;;;;;;16.00;16.00;;;;;;;;5156320;27;11810;-78
2022/05/15 08:37:25;;;;;;;;;20.00;20.00;;;;;;;;5156496;27;8770;-80
2022/05/15 08:39:50;;;;;;;;;18.75;18.75;;;;;;;;5154145;27;10563;-79
2022/05/15 08:42:21;;;;;;;;;17.00;17.00;;;;;;;;5155094;27;13474;-79
2022/05/15 08:44:50;;;;;;;;;20.00;17.25;;;;;;;;5155327;27;11452;-79
2022/05/15 08:47:23;;;;;;;;;22.50;20.75;;;;;;;;5155450;27;13301;-77
2022/05/15 08:49:52;;;;;;;;;44.75;37.00;;;;;;;;5155467;27;11550;-78
2022/05/15 08:52:21;;;;;;;;;26.25;23.50;;;;;;;;5155032;27;13768;-78
2022/05/15 08:54:52;;;;;;;;;14.25;13.25;;;;;;;;5154915;27;13341;-77
2022/05/15 08:57:20;;;;;;;;;16.00;15.00;;;;;;;;5155147;27;14027;-78
2022/05/15 08:59:55;;;;;;;;;12.00;12.00;;;;;;;;5154957;27;11775;-78
2022/05/15 09:02:21;;;;;;;;;13.33;12.33;;;;;;;;5149004;27;9572;-76
2022/05/15 09:04:47;;;;;;;;;16.33;15.00;;;;;;;;5135399;27;11731;-78
2022/05/15 09:07:12;;;;;;;;;14.00;13.67;;;;;;;;5149261;27;11452;-78
2022/05/15 09:09:46;;;;;;;;;18.00;17.00;;;;;;;;5141614;27;12992;-81
2022/05/15 09:12:14;;;;;;;;;14.33;14.00;;;;;;;;5122880;27;12293;-79
2022/05/15 09:15:00;;;;;;;;;16.33;16.33;;;;;;;;5142321;27;10448;-78
2022/05/15 09:17:32;;;;;;;;;19.67;19.33;;;;;;;;5142056;27;12150;-82
2022/05/15 09:20:07;;;;;;;;;19.00;18.33;;;;;;;;5141772;27;10773;-81
2022/05/15 09:22:34;;;;;;;;;17.00;16.33;;;;;;;;5142016;27;10144;-80
2022/05/15 09:25:02;;;;;;;;;0.00;0.00;;;;;;;;5140950;27;9349;-80
2022/05/15 09:27:28;;;;;;;;;16.75;16.75;;;;;;;;5140825;27;22557;-81
2022/05/15 09:29:53;;;;;;;;;18.67;16.00;;;;;;;;5136525;27;23780;-81
2022/05/15 09:32:50;;;;;;;;;32.50;27.00;;;;;;;;5136974;27;11415;-82
2022/05/15 09:35:36;;;;;;;;;33.25;30.50;;;;;;;;5056763;28;12329;-81
2022/05/15 09:43:32;;;;;;;;;25.00;23.50;;;;;;;;5055692;28;13240;-80
2022/05/15 09:45:59;;;;;;;;;19.75;15.75;;;;;;;;5102253;27;12587;-83
2022/05/15 09:48:36;;;;;;;;;16.50;13.75;;;;;;;;5141204;27;13614;-84
2022/05/15 09:51:04;;;;;;;;;19.25;16.25;;;;;;;;5140919;27;10420;-82
2022/05/15 09:53:37;;;;;;;;;16.00;14.25;;;;;;;;5134954;27;10642;-78
2022/05/15 09:56:07;;;;;;;;;31.25;29.25;;;;;;;;5137540;27;10549;-77
2022/05/15 09:58:37;;;;;;;;;22.75;21.25;;;;;;;;5140365;27;12556;-82
2022/05/15 10:01:15;;;;;;;;;16.00;15.25;;;;;;;;5138426;27;11881;-80
2022/05/15 10:03:40;;;;;;;;;29.00;25.50;;;;;;;;5140541;27;12280;-85
2022/05/15 10:06:08;;;;;;;;;19.00;17.25;;;;;;;;5121086;27;13751;-81
2022/05/15 10:08:33;;;;;;;;;16.00;14.75;;;;;;;;5140067;27;13990;-81
2022/05/15 10:11:01;;;;;;;;;19.00;16.50;;;;;;;;5120826;27;10870;-84
2022/05/15 10:13:26;;;;;;;;;14.50;13.50;;;;;;;;5139698;27;11993;-79
2022/05/15 10:15:54;;;;;;;;;20.25;19.50;;;;;;;;5138994;27;10346;-87
2022/05/15 10:18:22;;;;;;;;;31.25;30.00;;;;;;;;5137425;27;13616;-87
2022/05/15 10:20:49;;;;;;;;;36.25;32.75;;;;;;;;5138049;27;13628;-86
2022/05/15 10:23:20;;;;;;;;;32.00;30.00;;;;;;;;5119234;27;13758;-85
2022/05/15 10:25:48;;;;;;;;;25.00;24.25;;;;;;;;5139110;27;11792;-87
2022/05/15 10:28:27;;;;;;;;;19.25;18.25;;;;;;;;5116873;27;13696;-84
2022/05/15 10:31:04;;;;;;;;;20.75;17.75;;;;;;;;5117055;27;12749;-77
2022/05/15 10:33:35;;;;;;;;;20.00;19.75;;;;;;;;5137900;27;12333;-80
2022/05/15 10:36:18;;;;;;;;;17.75;17.75;;;;;;;;5139245;27;9930;-85
2022/05/15 10:38:44;;;;;;;;;15.00;15.00;;;;;;;;5136536;27;12764;-83
2022/05/15 10:41:26;;;;;;;;;20.00;19.00;;;;;;;;5138214;27;11342;-87
2022/05/15 10:44:12;;;;;;;;;16.50;15.25;;;;;;;;5138745;27;10455;-80
2022/05/15 10:46:37;;;;;;;;;18.25;14.25;;;;;;;;5136038;27;13373;-81
2022/05/15 10:49:21;;;;;;;;;18.75;16.50;;;;;;;;5138540;27;10411;-81
2022/05/15 10:52:01;;;;;;;;;17.00;15.25;;;;;;;;5118772;27;12556;-87
2022/05/15 10:57:24;;;;;;;;;22.00;18.50;;;;;;;;5138223;27;12212;-82
2022/05/15 10:59:53;;;;;;;;;18.00;17.00;;;;;;;;5134762;27;12849;-89
2022/05/15 11:02:37;;;;;;;;;16.50;14.75;;;;;;;;5139181;27;13490;-81
2022/05/15 11:05:03;;;;;;;;;16.25;14.50;;;;;;;;5137165;27;12902;-79
2022/05/15 11:07:35;;;;;;;;;15.75;14.75;;;;;;;;5118807;27;10523;-80
2022/05/15 11:10:18;;;;;;;;;14.00;14.00;;;;;;;;5139271;27;12026;-79
2022/05/15 11:12:58;;;;;;;;;16.50;15.50;;;;;;;;5137673;27;12058;-80
2022/05/15 11:15:23;;;;;;;;;12.75;11.75;;;;;;;;5118186;27;15002;-86
2022/05/15 11:18:12;;;;;;;;;11.50;11.00;;;;;;;;5119327;27;13591;-80
2022/05/15 11:20:40;;;;;;;;;10.75;10.00;;;;;;;;5082252;27;11968;-80
2022/05/15 11:23:15;;;;;;;;;10.25;9.50;;;;;;;;5138766;27;10571;-77
2022/05/15 11:25:48;;;;;;;;;10.50;10.00;;;;;;;;5118850;27;21663;-76
2022/05/15 11:28:18;;;;;;;;;33.00;30.00;;;;;;;;5135330;27;21682;-80
2022/05/15 11:30:45;;;;;;;;;32.00;28.75;;;;;;;;5137606;27;12360;-77
2022/05/15 11:33:17;;;;;;;;;13.25;13.25;;;;;;;;5115870;27;15219;-78
2022/05/15 11:36:02;;;;;;;;;32.75;27.75;;;;;;;;5137944;27;13810;-77
2022/05/15 11:38:28;;;;;;;;;14.00;12.00;;;;;;;;5136718;27;13565;-77
2022/05/15 11:40:54;;;;;;;;;25.75;23.00;;;;;;;;5115583;27;15298;-74
2022/05/15 11:43:25;;;;;;;;;13.25;13.00;;;;;;;;5116354;27;14716;-79
2022/05/15 11:45:51;;;;;;;;;19.25;18.00;;;;;;;;5135921;27;11481;-76
2022/05/15 11:48:17;;;;;;;;;11.50;8.00;;;;;;;;5139372;27;10038;-80
2022/05/15 11:50:52;;;;;;;;;19.00;16.00;;;;;;;;5137389;27;21375;-76
2022/05/15 11:53:24;;;;;;;;;20.00;15.50;;;;;;;;5133356;27;21672;-77
2022/05/15 11:55:51;;;;;;;;;12.00;9.25;;;;;;;;5137671;27;14138;-76
2022/05/15 11:58:36;;;;;;;;;8.75;7.75;;;;;;;;5134686;27;22743;-74
2022/05/15 12:01:04;;;;;;;;;10.50;10.50;;;;;;;;5133931;27;21960;-71
2022/05/15 12:03:38;;;;;;;;;18.00;14.50;;;;;;;;5128138;27;22447;-74
2022/05/15 12:06:09;;;;;;;;;10.25;10.25;;;;;;;;5116752;27;13224;-75
2022/05/15 12:08:35;;;;;;;;;20.00;18.00;;;;;;;;5138380;27;11604;-74
2022/05/15 12:11:13;;;;;;;;;20.25;18.00;;;;;;;;5139294;27;13885;-75
2022/05/15 12:13:40;;;;;;;;;7.67;6.67;;;;;;;;5135465;27;9957;-77
2022/05/15 12:16:22;;;;;;;;;16.75;15.50;;;;;;;;5140010;27;22535;-75
2022/05/15 12:18:53;;;;;;;;;9.00;9.00;;;;;;;;5138613;27;22868;-74
2022/05/15 12:21:23;;;;;;;;;5.67;5.00;;;;;;;;5139141;27;22326;-73
2022/05/15 12:26:38;;;;;;;;;6.33;3.33;;;;;;;;5135921;27;10288;-75
2022/05/15 12:29:09;;;;;;;;;7.00;5.67;;;;;;;;5138113;27;11668;-74
2022/05/15 12:31:39;;;;;;;;;8.00;7.00;;;;;;;;5137600;27;11559;-75
2022/05/15 12:34:11;;;;;;;;;7.00;7.00;;;;;;;;5118114;27;12102;-74
2022/05/15 12:36:38;;;;;;;;;4.33;3.33;;;;;;;;5134546;27;9397;-72
2022/05/15 12:39:04;;;;;;;;;4.67;4.67;;;;;;;;5138480;27;11549;-78
2022/05/15 12:41:36;;;;;;;;;8.67;5.67;;;;;;;;5137869;27;10393;-75
2022/05/15 12:44:02;;;;;;;;;5.00;5.00;;;;;;;;5138037;27;9183;-75
2022/05/15 12:46:36;;;;;;;;;7.00;5.00;;;;;;;;5141418;27;12771;-75
2022/05/15 12:49:03;;;;;;;;;5.67;5.67;;;;;;;;5137119;27;10048;-76
2022/05/15 12:51:33;;;;;;;;;10.25;9.50;;;;;;;;5122154;27;11584;-78
2022/05/15 12:53:59;;;;;;;;;7.00;7.00;;;;;;;;5140618;27;21664;-80
2022/05/15 12:56:29;;;;;;;;;9.67;8.33;;;;;;;;5139865;27;21549;-78
2022/05/15 12:58:56;;;;;;;;;9.33;7.00;;;;;;;;5141202;27;11374;-79
2022/05/15 13:01:25;;;;;;;;;10.33;10.33;;;;;;;;5119606;27;13459;-77
2022/05/15 13:03:53;;;;;;;;;9.00;7.00;;;;;;;;5121597;27;24323;-78
2022/05/15 13:06:19;;;;;;;;;3.00;3.00;;;;;;;;5140921;27;22265;-81
2022/05/15 13:08:46;;;;;;;;;6.67;5.67;;;;;;;;5141044;27;9138;-80
2022/05/15 13:11:19;;;;;;;;;7.33;7.00;;;;;;;;5121752;27;11675;-80
2022/05/15 13:13:45;;;;;;;;;4.67;4.67;;;;;;;;5141455;27;11601;-81
2022/05/15 13:16:17;;;;;;;;;7.00;4.00;;;;;;;;5141126;27;11548;-83
2022/05/15 13:18:45;;;;;;;;;7.00;4.67;;;;;;;;5140495;27;11419;-87
2022/05/15 13:21:10;;;;;;;;;3.33;2.00;;;;;;;;5141547;27;9075;-83
2022/05/15 13:23:37;;;;;;;;;6.00;5.00;;;;;;;;5141683;27;11649;-85
2022/05/15 13:26:04;;;;;;;;;2.00;2.00;;;;;;;;5140339;27;10356;-86
2022/05/15 13:28:31;;;;;;;;;2.67;2.33;;;;;;;;5141812;27;9186;-82
2022/05/15 13:30:56;;;;;;;;;5.00;4.00;;;;;;;;5119966;27;9050;-83
2022/05/15 13:33:25;;;;;;;;;2.67;2.67;;;;;;;;5141268;27;11877;-86
2022/05/15 13:35:51;;;;;;;;;5.67;5.00;;;;;;;;5142046;27;11612;-86
2022/05/15 13:38:20;;;;;;;;;7.00;7.00;;;;;;;;5137127;27;11389;-84
2022/05/15 13:43:49;;;;;;;;;5.67;4.67;;;;;;;;5141734;27;9442;-80
2022/05/15 13:46:23;;;;;;;;;6.67;5.00;;;;;;;;5141633;27;11391;-86
2022/05/15 13:48:54;;;;;;;;;9.33;5.00;;;;;;;;5141451;27;11405;-79
2022/05/15 13:51:29;;;;;;;;;5.00;4.00;;;;;;;;5122062;27;10718;-81
2022/05/15 13:54:23;;;;;;;;;5.00;5.00;;;;;;;;5129902;27;10513;-80
2022/05/15 13:56:48;;;;;;;;;8.00;6.33;;;;;;;;5079023;28;9324;-80
2022/05/15 13:59:31;;;;;;;;;5.67;5.67;;;;;;;;5129342;27;11522;-79
2022/05/15 14:02:08;;;;;;;;;6.00;5.33;;;;;;;;5140903;27;11734;-77
2022/05/15 14:04:33;;;;;;;;;7.00;5.00;;;;;;;;5131300;27;11915;-76
2022/05/15 14:06:58;;;;;;;;;5.00;5.00;;;;;;;;5140963;27;11479;-80
2022/05/15 14:09:39;;;;;;;;;5.33;5.00;;;;;;;;5142588;27;8794;-81
2022/05/15 14:12:05;;;;;;;;;5.67;4.67;;;;;;;;5144420;27;8937;-86
2022/05/15 14:14:54;;;;;;;;;5.33;5.33;;;;;;;;5140919;27;10404;-85
2022/05/15 14:17:26;;;;;;;;;6.00;5.00;;;;;;;;5116281;28;12916;-84
2022/05/15 14:19:58;;;;;;;;;6.67;6.00;;;;;;;;5113436;27;11631;-82
2022/05/15 14:22:23;;;;;;;;;7.00;5.00;;;;;;;;5116659;27;9902;-82
2022/05/15 14:24:49;;;;;;;;;5.33;5.00;;;;;;;;5139323;27;10338;-82
2022/05/15 14:27:14;;;;;;;;;4.00;4.00;;;;;;;;5120239;27;11189;-82
2022/05/15 14:29:40;;;;;;;;;5.00;5.00;;;;;;;;5139737;27;10269;-83
2022/05/15 14:32:06;;;;;;;;;6.00;4.33;;;;;;;;5139919;27;9863;-82
2022/05/15 14:34:31;;;;;;;;;7.00;5.67;;;;;;;;5139207;27;11805;-83
2022/05/15 14:36:57;;;;;;;;;10.33;7.67;;;;;;;;5139676;27;11547;-83
2022/05/15 14:39:22;;;;;;;;;8.67;5.00;;;;;;;;5139690;27;21752;-84
2022/05/15 14:41:47;;;;;;;;;4.00;4.00;;;;;;;;5139547;27;21363;-84
2022/05/15 14:44:13;;;;;;;;;6.00;5.67;;;;;;;;5139916;27;11696;-84
2022/05/15 14:46:41;;;;;;;;;4.67;4.00;;;;;;;;5139672;27;11283;-84
2022/05/15 14:49:09;;;;;;;;;7.33;5.00;;;;;;;;5120953;27;13837;-84
2022/05/15 14:51:37;;;;;;;;;8.33;6.00;;;;;;;;5139269;27;10716;-85
2022/05/15 14:54:04;;;;;;;;;6.00;5.67;;;;;;;;5137720;27;9063;-84
2022/05/15 14:56:31;;;;;;;;;7.33;6.33;;;;;;;;5121728;27;13895;-84
2022/05/15 14:59:07;;;;;;;;;5.00;5.00;;;;;;;;5140406;27;11727;-85
2022/05/15 15:01:34;;;;;;;;;8.00;5.00;;;;;;;;5140633;27;11402;-83
2022/05/15 15:03:59;;;;;;;;;7.00;7.00;;;;;;;;5140877;27;9026;-85
2022/05/15 15:06:25;;;;;;;;;9.33;5.00;;;;;;;;5140759;27;8964;-85
2022/05/15 15:08:50;;;;;;;;;7.67;5.00;;;;;;;;5140931;27;10799;-85
2022/05/15 15:11:18;;;;;;;;;5.00;5.00;;;;;;;;5140902;27;8801;-85
2022/05/15 15:13:45;;;;;;;;;5.00;5.00;;;;;;;;5140343;27;9139;-85
2022/05/15 15:16:11;;;;;;;;;4.00;3.33;;;;;;;;5138500;27;8954;-84
2022/05/15 15:18:37;;;;;;;;;5.00;5.00;;;;;;;;5122310;27;13240;-82
2022/05/15 15:21:02;;;;;;;;;5.00;4.00;;;;;;;;5139816;27;11312;-81
2022/05/15 15:23:28;;;;;;;;;4.00;3.67;;;;;;;;5139981;27;8762;-84
2022/05/15 15:25:53;;;;;;;;;5.00;4.00;;;;;;;;5140846;27;11347;-82
2022/05/15 15:28:18;;;;;;;;;4.00;4.00;;;;;;;;5122178;27;13575;-85
2022/05/15 15:30:44;;;;;;;;;5.00;5.00;;;;;;;;5121944;27;8790;-84
2022/05/15 15:33:09;;;;;;;;;5.33;4.67;;;;;;;;5139870;27;8829;-82
2022/05/15 15:35:34;;;;;;;;;7.00;6.00;;;;;;;;5139291;27;10277;-83
2022/05/15 15:38:15;;;;;;;;;5.00;5.00;;;;;;;;5137297;27;11675;-82
2022/05/15 15:40:48;;;;;;;;;3.00;3.00;;;;;;;;5135440;27;8908;-85
2022/05/15 15:43:14;;;;;;;;;4.00;4.00;;;;;;;;5139450;27;9053;-86
2022/05/15 15:45:39;;;;;;;;;5.67;5.00;;;;;;;;5138736;27;9014;-87
2022/05/15 15:48:05;;;;;;;;;4.00;3.00;;;;;;;;5120385;27;12838;-80
2022/05/15 15:50:30;;;;;;;;;4.67;4.67;;;;;;;;5139039;27;10893;-89
2022/05/15 15:53:02;;;;;;;;;7.00;4.67;;;;;;;;5139120;27;10438;-83
2022/05/15 15:55:28;;;;;;;;;6.33;5.33;;;;;;;;5137225;27;8971;-82
2022/05/15 15:57:54;;;;;;;;;5.67;5.67;;;;;;;;5120998;27;11404;-78
2022/05/15 16:00:20;;;;;;;;;5.00;5.00;;;;;;;;5119235;27;13825;-79
2022/05/15 16:02:45;;;;;;;;;7.67;7.00;;;;;;;;5119478;27;10390;-77
2022/05/15 16:05:11;;;;;;;;;7.00;5.00;;;;;;;;5137834;27;10608;-74
2022/05/15 16:07:37;;;;;;;;;7.00;5.00;;;;;;;;5138669;27;9985;-77
2022/05/15 16:10:02;;;;;;;;;8.00;7.00;;;;;;;;5134266;27;9753;-74
2022/05/15 16:12:28;;;;;;;;;6.67;5.67;;;;;;;;5137173;27;8909;-81
2022/05/15 16:14:54;;;;;;;;;4.33;4.33;;;;;;;;5140042;27;13287;-79
2022/05/15 16:17:19;;;;;;;;;6.00;5.00;;;;;;;;5140804;27;11367;-76
2022/05/15 16:19:44;;;;;;;;;6.67;5.67;;;;;;;;5143748;27;11498;-76
2022/05/15 16:22:10;;;;;;;;;7.00;6.67;;;;;;;;5143626;27;8766;-76
2022/05/15 16:24:35;;;;;;;;;9.33;6.33;;;;;;;;5143164;27;10264;-77
2022/05/15 16:27:05;;;;;;;;;7.00;7.00;;;;;;;;5143276;27;11319;-79
2022/05/15 16:29:33;;;;;;;;;21.25;20.50;;;;;;;;5142931;27;12971;-72
2022/05/15 16:31:58;;;;;;;;;16.75;14.00;;;;;;;;5142660;27;22776;-73
2022/05/15 16:34:24;;;;;;;;;17.25;14.00;;;;;;;;5142602;27;13218;-72
2022/05/15 16:36:49;;;;;;;;;18.25;13.00;;;;;;;;5142472;27;8816;-73
2022/05/15 16:39:14;;;;;;;;;15.75;13.00;;;;;;;;5142502;27;8782;-73
2022/05/15 16:41:40;;;;;;;;;10.00;10.00;;;;;;;;5142252;27;8939;-73
2022/05/15 16:44:05;;;;;;;;;9.00;9.00;;;;;;;;5123118;27;11121;-72
2022/05/15 16:46:31;;;;;;;;;13.50;12.00;;;;;;;;5124044;27;23389;-73
2022/05/15 16:48:56;;;;;;;;;13.50;10.75;;;;;;;;5141936;27;22405;-72
2022/05/15 16:51:21;;;;;;;;;16.75;15.75;;;;;;;;5142025;27;8991;-73
2022/05/15 16:53:47;;;;;;;;;11.25;10.50;;;;;;;;5123293;27;12449;-73
2022/05/15 16:56:12;;;;;;;;;9.75;9.75;;;;;;;;5141331;27;11578;-73
2022/05/15 16:58:38;;;;;;;;;18.25;16.75;;;;;;;;5142021;27;22364;-73
2022/05/15 17:01:04;;;;;;;;;12.75;12.00;;;;;;;;5142299;27;22488;-73
2022/05/15 17:03:29;;;;;;;;;16.50;11.75;;;;;;;;5142573;27;11534;-73
2022/05/15 17:05:55;;;;;;;;;15.00;13.00;;;;;;;;5123501;27;12778;-73
2022/05/15 17:08:21;;;;;;;;;17.50;10.75;;;;;;;;5123280;27;13177;-73
2022/05/15 17:10:46;;;;;;;;;13.00;11.00;;;;;;;;5142123;27;12506;-72
2022/05/15 17:13:15;;;;;;;;;12.75;12.50;;;;;;;;5123063;27;11382;-73
2022/05/15 17:15:41;;;;;;;;;11.00;11.00;;;;;;;;5123146;27;13741;-73
2022/05/15 17:18:07;;;;;;;;;14.00;12.25;;;;;;;;5141536;27;11341;-72
2022/05/15 17:20:33;;;;;;;;;8.75;6.00;;;;;;;;5141858;27;11992;-72
2022/05/15 17:22:58;;;;;;;;;11.75;10.00;;;;;;;;5122869;27;24250;-72
2022/05/15 17:25:26;;;;;;;;;15.25;13.50;;;;;;;;5141922;27;22360;-73
2022/05/15 17:27:51;;;;;;;;;10.75;10.75;;;;;;;;5122430;27;13568;-73
2022/05/15 17:36:01;;;;;;;;;9.75;9.00;;;;;;;;5084273;27;21521;-71
2022/05/15 17:38:27;;;;;;;;;12.00;9.00;;;;;;;;5122087;27;24434;-72
2022/05/15 17:40:52;;;;;;;;;10.50;9.50;;;;;;;;5140964;27;16629;-72
2022/05/15 17:43:18;;;;;;;;;15.75;13.50;;;;;;;;5122543;27;13500;-74
2022/05/15 17:45:44;;;;;;;;;13.00;11.00;;;;;;;;5122794;27;23742;-72
2022/05/15 17:48:10;;;;;;;;;12.00;10.25;;;;;;;;5141720;27;11784;-72
2022/05/15 17:50:36;;;;;;;;;13.75;12.50;;;;;;;;5141204;27;11346;-72
2022/05/15 17:53:02;;;;;;;;;10.00;9.00;;;;;;;;5122348;27;12284;-72
2022/05/15 17:55:27;;;;;;;;;10.50;10.50;;;;;;;;5140100;27;21372;-72
2022/05/15 17:57:53;;;;;;;;;10.25;10.25;;;;;;;;5140475;27;22549;-72
2022/05/15 18:00:29;;;;;;;;;7.75;6.00;;;;;;;;5122884;27;11121;-73
2022/05/15 18:02:55;;;;;;;;;12.00;11.00;;;;;;;;5141279;27;22180;-73
2022/05/15 18:05:21;;;;;;;;;15.00;12.00;;;;;;;;5140767;27;23348;-73
2022/05/15 18:07:52;;;;;;;;;12.25;11.50;;;;;;;;5141478;27;8759;-73
2022/05/15 18:10:17;;;;;;;;;11.50;11.50;;;;;;;;5140620;27;11938;-73
2022/05/15 18:12:42;;;;;;;;;11.75;10.50;;;;;;;;5140821;27;10637;-73
2022/05/15 18:15:09;;;;;;;;;9.75;4.25;;;;;;;;5141686;27;10051;-73
2022/05/15 18:17:34;;;;;;;;;11.50;10.00;;;;;;;;5140791;27;23478;-72
2022/05/15 18:19:59;;;;;;;;;8.75;7.25;;;;;;;;5140969;27;23806;-72
2022/05/15 18:22:24;;;;;;;;;4.00;4.00;;;;;;;;5122095;27;22642;-72
2022/05/15 18:24:52;;;;;;;;;13.75;10.50;;;;;;;;5141209;27;12626;-73
2022/05/15 18:27:18;;;;;;;;;14.25;14.25;;;;;;;;5140367;27;22391;-72
2022/05/15 18:29:43;;;;;;;;;16.00;12.75;;;;;;;;5122409;27;11713;-73
2022/05/15 18:32:08;;;;;;;;;18.50;14.00;;;;;;;;5141135;27;10827;-73
2022/05/15 18:34:34;;;;;;;;;5.00;5.00;;;;;;;;5140926;27;11719;-73
2022/05/15 18:36:59;;;;;;;;;12.25;9.00;;;;;;;;5140477;27;22155;-73
2022/05/15 18:39:25;;;;;;;;;9.25;5.00;;;;;;;;5139841;27;21664;-73
2022/05/15 18:42:06;;;;;;;;;6.75;5.25;;;;;;;;5139555;27;21479;-73
2022/05/15 18:44:32;;;;;;;;;10.50;10.50;;;;;;;;5140627;27;11452;-73
2022/05/15 18:46:58;;;;;;;;;3.00;2.00;;;;;;;;5121609;27;22697;-72
2022/05/15 18:49:24;;;;;;;;;8.00;5.50;;;;;;;;5140624;27;22191;-73
2022/05/15 18:57:18;;;;;;;;;6.00;5.75;;;;;;;;5140267;27;22239;-73
2022/05/15 18:59:44;;;;;;;;;11.00;8.00;;;;;;;;5140407;27;22175;-72
2022/05/15 19:02:11;;;;;;;;;8.75;8.75;;;;;;;;5139823;27;21975;-75
2022/05/15 19:04:37;;;;;;;;;9.25;9.25;;;;;;;;5121435;27;24093;-72
2022/05/15 19:07:04;;;;;;;;;10.25;8.25;;;;;;;;5118205;27;10845;-75
2022/05/15 19:09:30;;;;;;;;;6.50;6.00;;;;;;;;5119839;28;21478;-75
2022/05/15 19:11:56;;;;;;;;;26.50;23.25;;;;;;;;5119491;28;22567;-74
2022/05/15 19:14:21;;;;;;;;;10.00;6.50;;;;;;;;5119217;28;24412;-76
2022/05/15 19:16:47;;;;;;;;;7.50;5.00;;;;;;;;5118676;28;22673;-75
2022/05/15 19:19:12;;;;;;;;;15.25;9.00;;;;;;;;5119099;28;22229;-74
2022/05/15 19:21:38;;;;;;;;;8.25;8.25;;;;;;;;5100022;28;22755;-73
2022/05/15 19:24:03;;;;;;;;;8.00;8.00;;;;;;;;5119431;28;21488;-75
2022/05/15 19:26:29;;;;;;;;;4.25;4.25;;;;;;;;5119393;28;8840;-74
2022/05/15 19:28:55;;;;;;;;;5.00;4.00;;;;;;;;5137593;27;12656;-73
2022/05/15 19:31:20;;;;;;;;;6.00;6.00;;;;;;;;5138506;27;11502;-71
2022/05/15 19:33:46;;;;;;;;;4.75;3.75;;;;;;;;5137294;27;9499;-72
2022/05/15 19:36:12;;;;;;;;;7.00;7.00;;;;;;;;5136365;27;11414;-72
2022/05/15 19:38:38;;;;;;;;;5.00;5.00;;;;;;;;5136634;27;11271;-71
2022/05/15 19:41:03;;;;;;;;;5.00;5.00;;;;;;;;5135850;27;8821;-71
2022/05/15 19:43:29;;;;;;;;;4.75;4.75;;;;;;;;5136222;27;8859;-72
2022/05/15 19:45:54;;;;;;;;;7.75;7.00;;;;;;;;5133828;27;13099;-72
2022/05/15 19:48:19;;;;;;;;;8.00;8.00;;;;;;;;5131852;27;11295;-72
2022/05/15 19:50:45;;;;;;;;;7.00;7.00;;;;;;;;5135467;27;10449;-72
2022/05/15 19:53:10;;;;;;;;;7.25;6.75;;;;;;;;5117135;27;8846;-71
2022/05/15 19:55:37;;;;;;;;;9.50;7.75;;;;;;;;5136241;27;10265;-72
2022/05/15 19:58:03;;;;;;;;;13.25;9.50;;;;;;;;5136027;27;10568;-72
2022/05/15 20:00:30;;;;;;;;;11.50;10.00;;;;;;;;5136077;27;22711;-72
2022/05/15 20:02:56;;;;;;;;;7.00;7.00;;;;;;;;5135364;27;21669;-71
2022/05/15 20:13:36;;;;;;;;;8.75;6.75;;;;;;;;5135219;27;21323;-87
2022/05/15 20:16:04;;;;;;;;;6.25;5.75;;;;;;;;5139250;27;10299;-87
2022/05/15 20:18:29;;;;;;;;;9.25;6.75;;;;;;;;5139032;27;9535;-84
2022/05/15 20:20:56;;;;;;;;;7.00;6.50;;;;;;;;5118257;27;10103;-83
2022/05/15 20:23:21;;;;;;;;;7.00;7.00;;;;;;;;5118047;27;11551;-83
2022/05/15 20:25:46;;;;;;;;;8.00;8.00;;;;;;;;5134680;27;10210;-83
2022/05/15 20:28:11;;;;;;;;;8.00;8.00;;;;;;;;5135635;27;8860;-82
2022/05/15 20:30:37;;;;;;;;;8.50;8.25;;;;;;;;5137828;27;8833;-83
2022/05/15 20:33:02;;;;;;;;;9.00;9.00;;;;;;;;5137773;27;9060;-86
2022/05/15 20:35:27;;;;;;;;;7.00;7.00;;;;;;;;5139734;27;11445;-88
2022/05/15 20:37:53;;;;;;;;;8.50;7.50;;;;;;;;5139459;27;8778;-85
2022/05/15 20:40:18;;;;;;;;;7.00;7.00;;;;;;;;5140202;27;12495;-88
2022/05/15 20:42:44;;;;;;;;;8.75;8.00;;;;;;;;5121562;27;13637;-84
2022/05/15 20:45:10;;;;;;;;;7.00;7.00;;;;;;;;5120466;27;12455;-84
2022/05/15 20:47:35;;;;;;;;;5.25;5.25;;;;;;;;5120794;27;10743;-86
2022/05/15 20:50:07;;;;;;;;;7.75;7.75;;;;;;;;5121069;27;11505;-86
2022/05/15 20:52:36;;;;;;;;;7.25;7.00;;;;;;;;5102211;27;12509;-88
2022/05/15 20:55:03;;;;;;;;;8.50;8.00;;;;;;;;5119158;27;10705;-83
2022/05/15 20:57:28;;;;;;;;;7.50;5.75;;;;;;;;5120143;27;10406;-88
2022/05/15 20:59:54;;;;;;;;;8.50;8.50;;;;;;;;5140427;27;12383;-79
2022/05/15 21:02:19;;;;;;;;;6.75;6.75;;;;;;;;5137303;27;11437;-81
2022/05/15 21:04:44;;;;;;;;;7.25;7.00;;;;;;;;5142427;27;11775;-81
2022/05/15 21:07:09;;;;;;;;;8.00;8.00;;;;;;;;5142626;27;11372;-82
2022/05/15 21:09:35;;;;;;;;;9.00;8.00;;;;;;;;5142716;27;10709;-82
2022/05/15 21:12:00;;;;;;;;;6.25;6.25;;;;;;;;5124678;27;8829;-81
2022/05/15 21:14:30;;;;;;;;;5.50;5.50;;;;;;;;5143200;27;12009;-82
2022/05/15 21:16:56;;;;;;;;;6.00;6.00;;;;;;;;5142945;27;11400;-80
2022/05/15 21:21:56;;;;;;;;;7.50;7.50;;;;;;;;5375655;22;8968;-79
2022/05/15 21:24:21;;;;;;;;;6.50;6.50;;;;;;;;5030870;28;12674;-79
2022/05/15 21:26:47;;;;;;;;;5.50;5.50;;;;;;;;5038567;28;9362;-79
2022/05/15 21:29:14;;;;;;;;;6.00;6.00;;;;;;;;5040439;28;9506;-79
2022/05/15 21:31:40;;;;;;;;;7.25;7.00;;;;;;;;5039012;28;13488;-78
2022/05/15 21:34:05;;;;;;;;;7.75;7.25;;;;;;;;5039505;28;12696;-79
2022/05/15 21:36:30;;;;;;;;;7.75;7.00;;;;;;;;5040639;28;8830;-78
2022/05/15 21:44:23;;;;;;;;;12.00;9.00;;;;;;;;5036836;28;10501;-79
2022/05/15 21:46:49;;;;;;;;;11.50;9.00;;;;;;;;5040121;28;21380;-89
2022/05/15 21:49:15;;;;;;;;;13.00;10.25;;;;;;;;5033638;28;8920;-85
2022/05/15 21:51:40;;;;;;;;;7.75;6.25;;;;;;;;5038115;28;23316;-90
2022/05/15 21:54:05;;;;;;;;;8.25;8.25;;;;;;;;5040228;28;22352;-84
2022/05/15 21:56:31;;;;;;;;;9.00;7.50;;;;;;;;5040669;28;9549;-79
2022/05/15 22:01:39;;;;;;;;;6.50;6.50;;;;;;;;5040429;28;12317;-79
2022/05/15 22:04:05;;;;;;;;;18.00;14.75;;;;;;;;5039481;28;11315;-79
2022/05/15 22:06:30;;;;;;;;;10.00;6.75;;;;;;;;5038316;28;24952;-79
2022/05/15 22:08:56;;;;;;;;;6.50;6.00;;;;;;;;5040415;28;22650;-80
2022/05/15 22:11:21;;;;;;;;;8.00;7.00;;;;;;;;5025104;28;22236;-80